createdAt,value
2022-08-25T00:02:48.512Z,13
2022-08-25T00:07:50.598Z,12.9
2022-08-25T00:12:52.869Z,14.1
2022-08-25T00:17:55.396Z,14.3
2022-08-25T00:22:57.810Z,13
2022-08-25T00:28:02.187Z,11.7
2022-08-25T00:33:01.115Z,10.8
2022-08-25T00:38:03.748Z,12.3
2022-08-25T00:43:06.839Z,10.8
2022-08-25T00:48:09.272Z,12
2022-08-25T00:53:11.857Z,11.3
2022-08-25T00:58:14.126Z,13.6
2022-08-25T01:03:16.734Z,10.6
2022-08-25T01:08:19.256Z,10.9
2022-08-25T01:13:21.569Z,10
2022-08-25T01:18:24.154Z,11.4
2022-08-25T01:23:26.692Z,11.2
2022-08-25T01:28:29.425Z,11.3
2022-08-25T01:33:31.924Z,10.8
2022-08-25T01:38:35.185Z,12.6
2022-08-25T01:43:37.532Z,15.4
2022-08-25T01:48:40.122Z,12.9
2022-08-25T01:53:42.628Z,14.5
2022-08-25T01:58:45.007Z,13.3
2022-08-25T02:03:48.066Z,15.4
2022-08-25T02:08:52.358Z,12.5
2022-08-25T02:13:54.840Z,13.6
2022-08-25T02:18:57.965Z,15.3
2022-08-25T02:24:00.731Z,24.6
2022-08-25T02:29:03.237Z,14.5
2022-08-25T02:34:05.631Z,14.2
2022-08-25T02:39:08.321Z,13.2
2022-08-25T02:44:11.003Z,11.2
2022-08-25T02:49:13.513Z,13.2
2022-08-25T02:54:16.018Z,13.9
2022-08-25T02:59:18.341Z,12.7
2022-08-25T03:04:20.922Z,11.8
2022-08-25T03:09:23.474Z,12.6
2022-08-25T03:14:25.978Z,14
2022-08-25T03:19:29.275Z,12.9
2022-08-25T03:24:31.848Z,14
2022-08-25T03:29:34.137Z,13.6
2022-08-25T03:34:39.267Z,13.6
2022-08-25T03:39:41.768Z,14.7
2022-08-25T03:44:44.498Z,15
2022-08-25T03:49:47.055Z,12.5
2022-08-25T03:54:49.556Z,11.8
2022-08-25T03:59:52.221Z,12.2
2022-08-25T04:04:55.565Z,15.9
2022-08-25T04:09:58.309Z,12.5
2022-08-25T04:15:01.208Z,12
2022-08-25T04:20:04.118Z,12.8
2022-08-25T04:25:06.679Z,13.5
2022-08-25T04:30:08.952Z,13.1
2022-08-25T04:35:11.529Z,11.2
2022-08-25T04:40:14.098Z,9.4
2022-08-25T04:45:16.955Z,11.4
2022-08-25T04:50:19.491Z,11.5
2022-08-25T04:55:22.060Z,11.9
2022-08-25T05:00:24.580Z,10.6
2022-08-25T05:05:26.875Z,10.2
2022-08-25T05:10:29.200Z,12.9
2022-08-25T05:15:32.012Z,13.2
2022-08-25T05:20:36.186Z,26.9
2022-08-25T05:25:38.724Z,8.5
2022-08-25T05:30:41.034Z,13.9
2022-08-25T05:35:43.420Z,31.3
2022-08-25T05:40:45.967Z,9.5
2022-08-25T05:45:48.452Z,8.9
2022-08-25T05:50:51.179Z,10.7
2022-08-25T05:55:53.554Z,17
2022-08-25T06:00:56.029Z,6.2
2022-08-25T06:05:59.365Z,9.6
2022-08-25T06:11:01.846Z,7.9
2022-08-25T06:16:04.556Z,9.2
2022-08-25T06:21:07.258Z,10.6
2022-08-25T06:26:09.542Z,8.5
2022-08-25T06:31:12.081Z,9.9
2022-08-25T06:36:13.119Z,8
2022-08-25T06:41:15.525Z,15.2
2022-08-25T06:46:18.432Z,10.8
2022-08-25T06:51:21.329Z,10.2
2022-08-25T06:56:24.038Z,12.7
2022-08-25T07:01:28.428Z,13.3
2022-08-25T07:06:35.173Z,12
2022-08-25T07:11:37.522Z,11.2
2022-08-25T07:16:39.850Z,12.8
2022-08-25T07:21:41.116Z,13.2
2022-08-25T07:26:46.392Z,11.9
2022-08-25T07:31:48.780Z,11.9
2022-08-25T07:36:52.816Z,11.8
2022-08-25T07:41:55.788Z,11.6
2022-08-25T07:46:58.663Z,12
2022-08-25T07:52:04.894Z,9
2022-08-25T07:57:11.013Z,12.6
2022-08-25T08:02:18.751Z,9.4
2022-08-25T08:07:15.881Z,11.3
2022-08-25T08:12:19.987Z,9.6
2022-08-25T08:17:24.371Z,11.2
2022-08-25T08:22:26.996Z,5.6
2022-08-25T08:27:29.603Z,9.6
2022-08-25T08:32:46.385Z,6.8
2022-08-25T08:37:33.765Z,7.8
2022-08-25T08:42:36.070Z,9.3
2022-08-25T08:47:38.756Z,6.1
2022-08-25T08:52:41.146Z,6.6
2022-08-25T09:02:54.271Z,6.4
2022-08-25T09:07:57.298Z,5.3
2022-08-25T09:12:59.717Z,6.2
2022-08-25T09:18:05.131Z,8.5
2022-08-25T09:23:13.608Z,7.1
2022-08-25T09:28:21.793Z,6.6
2022-08-25T09:33:24.069Z,4.2
2022-08-25T09:38:26.800Z,7.4
2022-08-25T09:43:30.191Z,6.8
2022-08-25T09:48:35.559Z,7.2
2022-08-25T09:53:42.903Z,6.1
2022-08-25T09:58:45.681Z,5.9
2022-08-25T10:03:47.972Z,5.8
2022-08-25T10:08:51.884Z,6.3
2022-08-25T10:13:54.412Z,8.1
2022-08-25T10:18:58.527Z,9.9
2022-08-25T10:24:01.366Z,10.2
2022-08-25T10:29:04.381Z,7.9
2022-08-25T10:34:07.078Z,11.1
2022-08-25T10:39:31.856Z,9.6
2022-08-25T10:44:12.871Z,7.1
2022-08-25T10:50:26.569Z,9.6
2022-08-25T10:55:29.258Z,9.3
2022-08-25T11:00:33.321Z,12.9
2022-08-25T11:05:36.346Z,11.7
2022-08-25T11:10:39.114Z,9.1
2022-08-25T11:15:54.705Z,10.7
2022-08-25T11:20:50.136Z,11
2022-08-25T11:25:52.824Z,10.2
2022-08-25T11:30:57.170Z,9.6
2022-08-25T11:36:01.581Z,11.3
2022-08-25T11:41:10.909Z,13
2022-08-25T11:46:14.087Z,12.7
2022-08-25T11:51:16.986Z,11.9
2022-08-25T11:56:23.093Z,10.5
2022-08-25T12:01:28.187Z,11.1
2022-08-25T12:06:32.080Z,11.6
2022-08-25T12:11:34.644Z,14.7
2022-08-25T12:16:41.403Z,8.8
2022-08-25T12:21:51.151Z,14.7
2022-08-25T12:26:53.787Z,14.3
2022-08-25T12:31:56.839Z,12.2
2022-08-25T12:36:58.961Z,9.2
2022-08-25T12:42:09.333Z,11.3
2022-08-25T12:47:13.178Z,9.4
2022-08-25T12:52:16.116Z,8.5
2022-08-25T12:57:18.850Z,10.5
2022-08-25T13:02:22.334Z,10.1
2022-08-25T13:07:28.529Z,11.2
2022-08-25T13:12:34.760Z,9.1
2022-08-25T13:17:37.887Z,7
2022-08-25T13:22:40.518Z,10.5
2022-08-25T13:27:43.723Z,8.8
2022-08-25T13:32:46.877Z,11.4
2022-08-25T13:37:49.255Z,10.5
2022-08-25T13:42:55.752Z,13.4
2022-08-25T13:48:02.543Z,11
2022-08-25T13:53:02.817Z,9.7
2022-08-25T13:58:06.174Z,8.1
2022-08-25T14:03:08.807Z,9.9
2022-08-25T14:08:23.286Z,11.6
2022-08-25T14:13:11.018Z,11.7
2022-08-25T14:18:18.652Z,10.6
2022-08-25T14:23:19.409Z,9.3
2022-08-25T14:28:22.458Z,11.7
2022-08-25T14:33:27.223Z,8.5
2022-08-25T14:38:31.843Z,10.8
2022-08-25T14:43:34.730Z,8.5
2022-08-25T14:48:39.634Z,11
2022-08-25T14:53:44.244Z,11.9
2022-08-25T14:58:48.659Z,10.4
2022-08-25T15:03:49.328Z,9.6
2022-08-25T15:08:53.528Z,13.6
2022-08-25T15:13:57.332Z,9
2022-08-25T15:18:59.866Z,12.4
2022-08-25T15:24:07.450Z,9.6
2022-08-25T15:29:11.716Z,9.6
2022-08-25T15:34:16.219Z,12.6
2022-08-25T15:39:20.686Z,9
2022-08-25T15:44:27.327Z,10.5
2022-08-25T15:49:32.097Z,9.6
2022-08-25T15:54:35.479Z,10.2
2022-08-25T15:59:40.199Z,9
2022-08-25T16:04:45.650Z,11.4
2022-08-25T16:09:48.507Z,11.3
2022-08-25T16:14:55.091Z,11.1
2022-08-25T16:19:59.703Z,12.2
2022-08-25T16:25:21.852Z,10.4
2022-08-25T16:30:24.429Z,9.9
2022-08-25T16:35:27.782Z,15.8
2022-08-25T16:40:36.186Z,9.2
2022-08-25T16:45:42.721Z,12.7
2022-08-25T16:50:45.095Z,8.9
2022-08-25T16:55:50.186Z,8.9
2022-08-25T17:00:54.253Z,8.9
2022-08-25T17:05:59.517Z,9.3
2022-08-25T17:11:02.281Z,9.8
2022-08-25T17:16:07.438Z,11.1
2022-08-25T17:21:10.852Z,119.3
2022-08-25T17:26:16.252Z,656.2
2022-08-25T17:31:17.604Z,817.6
2022-08-25T17:36:20.950Z,676.5
2022-08-25T17:41:29.642Z,508.2
2022-08-25T17:46:32.062Z,290.9
2022-08-25T17:51:34.946Z,283.5
2022-08-25T17:56:37.350Z,212.8
2022-08-25T18:01:42.048Z,163
2022-08-25T18:06:44.886Z,148.8
2022-08-25T18:11:47.895Z,23.8
2022-08-25T18:16:50.859Z,11.5
2022-08-25T18:21:56.045Z,10.3
2022-08-25T18:26:58.824Z,11
2022-08-25T18:32:01.878Z,7.8
2022-08-25T18:37:02.965Z,8.5
2022-08-25T18:42:11.362Z,12.8
2022-08-25T18:47:14.472Z,13
2022-08-25T18:52:21.459Z,14.1
2022-08-25T18:57:24.087Z,11.7
2022-08-25T19:02:29.535Z,10.9
2022-08-25T19:07:32.973Z,12
2022-08-25T19:12:39.938Z,10.6
2022-08-25T19:17:44.411Z,11.7
2022-08-25T19:22:47.294Z,15.2
2022-08-25T19:27:50.148Z,14.4
2022-08-25T19:32:53.374Z,12.6
2022-08-25T19:37:58.818Z,10.4
2022-08-25T19:43:01.135Z,11.9
2022-08-25T19:48:04.513Z,15.5
2022-08-25T19:53:08.933Z,10.9
2022-08-25T19:58:14.763Z,10.8
2022-08-25T20:03:20.123Z,8.9
2022-08-25T20:08:29.557Z,11
2022-08-25T20:13:32.751Z,11.4
2022-08-25T20:18:35.168Z,10.9
2022-08-25T20:23:40.727Z,10.7
2022-08-25T20:28:42.906Z,11.1
2022-08-25T20:33:45.640Z,12.9
2022-08-25T20:38:52.163Z,9.9
2022-08-25T20:43:58.653Z,12.7
2022-08-25T20:49:02.527Z,30.5
2022-08-25T20:54:05.759Z,13.1
2022-08-25T20:59:10.433Z,9.1
2022-08-25T21:04:16.081Z,12.8
2022-08-25T21:09:24.959Z,12.6
2022-08-25T21:14:27.922Z,11.2
2022-08-25T21:19:30.456Z,11.7
2022-08-25T21:24:33.136Z,12.8
2022-08-25T21:29:36.655Z,12.7
2022-08-25T21:34:45.274Z,11.1
2022-08-25T21:39:50.542Z,13
2022-08-25T21:44:53.984Z,15.5
2022-08-25T21:49:56.651Z,12.3
2022-08-25T21:54:59.418Z,14.5
2022-08-25T22:00:05.033Z,14.5
2022-08-25T22:05:10.667Z,13.6
2022-08-25T22:10:16.897Z,11.3
2022-08-25T22:15:20.346Z,11.5
2022-08-25T22:20:23.633Z,9.7
2022-08-25T22:25:30.632Z,13.2
2022-08-25T22:30:34.146Z,14
2022-08-25T22:35:42.032Z,9.1
2022-08-25T22:40:44.376Z,12.9
2022-08-25T22:45:48.600Z,12
2022-08-25T22:50:58.087Z,9.3
2022-08-25T22:56:02.131Z,13
2022-08-25T23:01:05.715Z,11.5
2022-08-25T23:06:08.516Z,11.6
2022-08-25T23:11:11.300Z,9.7
2022-08-25T23:16:14.560Z,11.9
2022-08-25T23:21:17.587Z,15.6
2022-08-25T23:26:17.671Z,14.1
2022-08-25T23:31:22.262Z,13.6
2022-08-25T23:36:28.058Z,12.9
2022-08-25T23:41:31.404Z,15.9
2022-08-25T23:46:36.523Z,10.4
2022-08-25T23:51:39.311Z,13.7
2022-08-25T23:56:44.932Z,12
